Albert Maersk — OUOW2 — position and weather

sailwx.info

Track history (hours):
 
Tides and Currents Weather Stations Pressure Air Temp Water Temp Dewpoint Dewpoint Depression Visibility Wind Speed Wind Dir Waves Ship Positions

Albert Maersk

Last reported at 2015-Sep-03 02:33 UTC. Time now 2015-Sep-04 05:55 UTC.
Position N 01°14' E 104°00'.

MMSI: 220259928.

Date/timePositionNaut miles runAvg speedWind from/ knotsBaromVisibWave heightAir tempDewpointWater temp
2015-Sep-03 02:33N 01°14' E 104°00'1212.0
2015-Sep-03 01:32N 01°12' E 103°48'5 4.4
2015-Sep-03 00:31N 01°16' E 103°46'0 0.0
2015-Sep-02 23:33N 01°16' E 103°46'0 0.0
2015-Sep-02 22:33N 01°16' E 103°46'0 0.0
2015-Sep-02 21:33N 01°16' E 103°46'0 0.0
2015-Sep-02 20:33N 01°16' E 103°46'0 0.0
2015-Sep-02 19:24N 01°16' E 103°46'0 0.0
2015-Sep-02 18:33N 01°16' E 103°46'0 0.0
2015-Sep-02 17:33N 01°16' E 103°46'0 0.0
2015-Sep-02 16:33N 01°16' E 103°46'0 0.0
2015-Sep-02 15:33N 01°16' E 103°46'0 0.0
2015-Sep-02 14:33N 01°16' E 103°46'0 0.0
2015-Sep-02 13:33N 01°16' E 103°46'0 0.0
2015-Sep-02 12:33N 01°16' E 103°46'0 0.0
2015-Sep-02 11:33N 01°16' E 103°46'0 0.0
2015-Sep-02 10:33N 01°16' E 103°46'0 0.0
2015-Sep-02 09:32N 01°16' E 103°46'0 0.0
2015-Sep-02 08:33N 01°16' E 103°46'0 0.0
2015-Sep-02 07:34N 01°16' E 103°46'0 0.0
2015-Sep-02 06:33N 01°16' E 103°46'0 0.0
2015-Sep-02 05:33N 01°16' E 103°46'0 0.0
2015-Sep-02 04:33N 01°16' E 103°46'0 0.0
2015-Sep-02 03:33N 01°16' E 103°46'0 0.0
2015-Sep-02 02:33N 01°16' E 103°46'0 0.3
2015-Sep-02 01:33N 01°16' E 103°46'4 4.1
2015-Sep-02 00:33N 01°14' E 103°42'9 9.0
2015-Sep-01 23:33N 01°12' E 103°33'8 6.8
2015-Sep-01 22:24N 01°11' E 103°26'15513.1
2015-Sep-01 10:34N 02°38' E 101°17'1413.9
2015-Sep-01 09:33N 02°44' E 101°05'1413.9
2015-Sep-01 08:33N 02°51' E 100°53'1414.3
2015-Sep-01 07:33N 02°60' E 100°41'1414.1
2015-Sep-01 06:33N 03°09' E 100°31'  
Track history (hours):
 
Tides and Currents Weather Stations Pressure Air Temp Water Temp Dewpoint Dewpoint Depression Visibility Wind Speed Wind Dir Waves Ship Positions

Albert Maersk

Last reported at 2015-Sep-03 02:33 UTC. Time now 2015-Sep-04 05:55 UTC.
Position N 01°14' E 104°00'.

MMSI: 220259928.

Date/timePositionNaut miles runAvg speedWind from/ knotsBaromVisibWave heightAir tempDewpointWater temp
2015-Sep-03 02:33N 01°14' E 104°00'1212.0
2015-Sep-03 01:32N 01°12' E 103°48'5 4.4
2015-Sep-03 00:31N 01°16' E 103°46'0 0.0
2015-Sep-02 23:33N 01°16' E 103°46'0 0.0
2015-Sep-02 22:33N 01°16' E 103°46'0 0.0
2015-Sep-02 21:33N 01°16' E 103°46'0 0.0
2015-Sep-02 20:33N 01°16' E 103°46'0 0.0
2015-Sep-02 19:24N 01°16' E 103°46'0 0.0
2015-Sep-02 18:33N 01°16' E 103°46'0 0.0
2015-Sep-02 17:33N 01°16' E 103°46'0 0.0
2015-Sep-02 16:33N 01°16' E 103°46'0 0.0
2015-Sep-02 15:33N 01°16' E 103°46'0 0.0
2015-Sep-02 14:33N 01°16' E 103°46'0 0.0
2015-Sep-02 13:33N 01°16' E 103°46'0 0.0
2015-Sep-02 12:33N 01°16' E 103°46'0 0.0
2015-Sep-02 11:33N 01°16' E 103°46'0 0.0
2015-Sep-02 10:33N 01°16' E 103°46'0 0.0
2015-Sep-02 09:32N 01°16' E 103°46'0 0.0
2015-Sep-02 08:33N 01°16' E 103°46'0 0.0
2015-Sep-02 07:34N 01°16' E 103°46'0 0.0
2015-Sep-02 06:33N 01°16' E 103°46'0 0.0
2015-Sep-02 05:33N 01°16' E 103°46'0 0.0
2015-Sep-02 04:33N 01°16' E 103°46'0 0.0
2015-Sep-02 03:33N 01°16' E 103°46'0 0.0
2015-Sep-02 02:33N 01°16' E 103°46'0 0.3
2015-Sep-02 01:33N 01°16' E 103°46'4 4.1
2015-Sep-02 00:33N 01°14' E 103°42'9 9.0
2015-Sep-01 23:33N 01°12' E 103°33'8 6.8
2015-Sep-01 22:24N 01°11' E 103°26'15513.1
2015-Sep-01 10:34N 02°38' E 101°17'1413.9
2015-Sep-01 09:33N 02°44' E 101°05'1413.9
2015-Sep-01 08:33N 02°51' E 100°53'1414.3
2015-Sep-01 07:33N 02°60' E 100°41'1414.1
2015-Sep-01 06:33N 03°09' E 100°31'  

Dump ship's entire track history